Time;durP1;ratioP1;P1;durP2;ratioP2;P2;SDS_P1;SDS_P2;PMS_P1;PMS_P2;Temp;Humidity;BMP_temperature;BMP_pressure;BME280_temperature;BME280_humidity;BME280_pressure;Samples;Min_cycle;Max_cycle;Signal;HPM_P1;HPM_P2
2024/03/13 00:02:12;;;;;;;3.67;2.70;;;;;;;;;;5076588;28;20040;-75
2024/03/13 00:04:43;;;;;;;2.65;2.45;;;;;;;;;;5094615;28;20066;-71
2024/03/13 00:07:19;;;;;;;2.75;2.55;;;;;;;;;;5094668;28;20432;-71
2024/03/13 00:09:50;;;;;;;2.55;2.35;;;;;;;;;;5094481;28;20063;-71
2024/03/13 00:12:16;;;;;;;2.85;2.65;;;;;;;;;;5094147;28;20039;-71
2024/03/13 00:14:45;;;;;;;2.95;2.75;;;;;;;;;;5075827;28;20031;-70
2024/03/13 00:17:11;;;;;;;2.60;2.40;;;;;;;;;;5094462;28;20028;-71
2024/03/13 00:19:37;;;;;;;2.60;2.42;;;;;;;;;;5076512;28;20058;-71
2024/03/13 00:22:02;;;;;;;2.70;2.50;;;;;;;;;;5093944;28;20074;-70
2024/03/13 00:24:28;;;;;;;2.70;2.50;;;;;;;;;;5076172;28;20028;-69
2024/03/13 00:26:56;;;;;;;3.15;2.88;;;;;;;;;;5120770;22;20139;-70
2024/03/13 00:29:27;;;;;;;3.58;2.80;;;;;;;;;;5093822;28;20028;-73
2024/03/13 00:31:53;;;;;;;2.63;2.42;;;;;;;;;;5093947;28;20065;-73
2024/03/13 00:34:19;;;;;;;3.05;2.85;;;;;;;;;;5093802;28;20424;-73
2024/03/13 00:36:45;;;;;;;3.28;2.97;;;;;;;;;;5076307;28;20028;-74
2024/03/13 00:39:11;;;;;;;3.75;3.13;;;;;;;;;;5075619;28;20173;-72
2024/03/13 00:41:38;;;;;;;3.70;3.40;;;;;;;;;;5093897;28;20067;-72
2024/03/13 00:44:05;;;;;;;3.95;3.55;;;;;;;;;;5103845;22;20056;-79
2024/03/13 00:46:30;;;;;;;3.63;3.33;;;;;;;;;;5096042;28;20036;-78
2024/03/13 00:48:57;;;;;;;4.53;3.22;;;;;;;;;;5082408;28;20081;-76
2024/03/13 00:51:23;;;;;;;4.00;3.60;;;;;;;;;;5082208;28;20020;-76
2024/03/13 00:53:48;;;;;;;3.95;3.60;;;;;;;;;;5100462;28;20016;-76
2024/03/13 00:56:15;;;;;;;4.13;3.67;;;;;;;;;;5100184;28;20111;-76
2024/03/13 00:58:41;;;;;;;4.15;3.75;;;;;;;;;;5082847;28;20093;-78
2024/03/13 01:01:09;;;;;;;3.97;3.67;;;;;;;;;;5100379;28;20036;-78
2024/03/13 01:03:34;;;;;;;3.90;3.65;;;;;;;;;;5100386;28;20020;-78
2024/03/13 01:06:00;;;;;;;4.38;3.83;;;;;;;;;;5100667;28;20486;-77
2024/03/13 01:08:25;;;;;;;4.15;3.70;;;;;;;;;;5082105;28;20016;-79
2024/03/13 01:10:53;;;;;;;4.32;3.92;;;;;;;;;;5100352;28;20039;-79
2024/03/13 01:13:19;;;;;;;6.18;4.45;;;;;;;;;;5100595;28;20024;-79
2024/03/13 01:15:45;;;;;;;4.57;4.18;;;;;;;;;;5100375;28;20388;-78
2024/03/13 01:18:11;;;;;;;4.30;3.90;;;;;;;;;;5100186;28;20031;-78
2024/03/13 01:20:36;;;;;;;4.35;3.90;;;;;;;;;;5100470;28;20039;-77
2024/03/13 01:23:02;;;;;;;5.07;4.65;;;;;;;;;;5100244;28;20055;-77
2024/03/13 01:25:27;;;;;;;4.60;4.20;;;;;;;;;;5100546;28;20399;-78
2024/03/13 01:27:54;;;;;;;3.80;3.50;;;;;;;;;;5104412;28;20028;-78
2024/03/13 01:30:25;;;;;;;4.57;4.00;;;;;;;;;;5105927;28;20114;-77
2024/03/13 01:32:51;;;;;;;4.60;4.25;;;;;;;;;;5104812;28;20066;-77
2024/03/13 01:35:19;;;;;;;5.20;4.70;;;;;;;;;;5101932;28;20030;-76
2024/03/13 01:37:58;;;;;;;4.45;4.05;;;;;;;;;;5082083;28;20541;-72
2024/03/13 01:40:28;;;;;;;4.63;4.03;;;;;;;;;;5100931;28;20028;-76
2024/03/13 01:56:58;;;;;;;4.93;4.43;;;;;;;;;;5101815;28;20081;-77
2024/03/13 01:59:31;;;;;;;4.78;4.30;;;;;;;;;;5096532;28;20365;-77
2024/03/13 02:04:41;;;;;;;5.35;4.80;;;;;;;;;;5080302;28;20054;-77
2024/03/13 02:07:06;;;;;;;6.00;4.38;;;;;;;;;;5079927;28;20024;-77
2024/03/13 02:09:32;;;;;;;4.80;4.40;;;;;;;;;;5079818;28;20039;-78
2024/03/13 02:11:57;;;;;;;4.50;4.10;;;;;;;;;;5097725;28;20413;-78
2024/03/13 02:14:23;;;;;;;4.13;3.80;;;;;;;;;;5079271;28;20397;-78
2024/03/13 02:16:53;;;;;;;4.00;3.70;;;;;;;;;;5097450;28;20030;-78
2024/03/13 02:19:18;;;;;;;;;;;;;;;;;;5097858;28;20357;-79
2024/03/13 02:21:47;;;;;;;3.50;3.30;;;;;;;;;;5097438;28;19912;-79
2024/03/13 02:24:12;;;;;;;3.80;3.60;;;;;;;;;;5078078;28;20035;-79
2024/03/13 02:26:41;;;;;;;3.58;3.30;;;;;;;;;;5096994;28;20020;-79
2024/03/13 02:29:06;;;;;;;3.65;3.45;;;;;;;;;;5097368;28;20032;-79
2024/03/13 02:31:31;;;;;;;3.83;3.53;;;;;;;;;;5096675;28;20169;-79
2024/03/13 02:33:57;;;;;;;3.35;3.15;;;;;;;;;;5078173;28;20047;-79
2024/03/13 02:36:22;;;;;;;3.35;3.15;;;;;;;;;;5096359;28;20109;-79
2024/03/13 02:38:49;;;;;;;3.33;3.10;;;;;;;;;;5095993;28;20082;-76
2024/03/13 02:41:14;;;;;;;3.15;2.95;;;;;;;;;;5096060;28;20529;-76
2024/03/13 02:43:41;;;;;;;3.10;2.90;;;;;;;;;;5077972;28;20040;-76
2024/03/13 02:46:08;;;;;;;2.67;2.47;;;;;;;;;;5096024;28;20494;-76
2024/03/13 02:48:33;;;;;;;2.70;2.50;;;;;;;;;;5078057;28;20036;-77
2024/03/13 02:50:59;;;;;;;3.15;2.85;;;;;;;;;;5095876;28;20023;-77
2024/03/13 02:53:24;;;;;;;2.80;2.60;;;;;;;;;;5096057;28;20043;-77
2024/03/13 02:55:52;;;;;;;3.13;2.92;;;;;;;;;;5096082;28;20016;-79
2024/03/13 02:58:18;;;;;;;2.72;2.53;;;;;;;;;;5096488;28;20413;-80
2024/03/13 03:00:44;;;;;;;2.50;2.40;;;;;;;;;;5095935;28;20084;-79
2024/03/13 03:03:12;;;;;;;2.75;2.65;;;;;;;;;;5095705;28;20099;-76
2024/03/13 03:05:37;;;;;;;2.80;2.65;;;;;;;;;;5077678;28;20082;-76
2024/03/13 03:08:03;;;;;;;2.80;2.60;;;;;;;;;;5095887;28;20475;-76
2024/03/13 03:10:29;;;;;;;2.33;2.22;;;;;;;;;;5095514;28;20024;-76
2024/03/13 03:12:55;;;;;;;2.45;2.25;;;;;;;;;;5077543;28;20460;-78
2024/03/13 03:15:21;;;;;;;2.35;2.13;;;;;;;;;;5094990;28;20036;-77
2024/03/13 03:17:46;;;;;;;2.40;2.30;;;;;;;;;;5095139;28;20035;-77
2024/03/13 03:20:11;;;;;;;2.58;2.45;;;;;;;;;;5077223;28;20433;-75
2024/03/13 03:22:37;;;;;;;2.40;2.30;;;;;;;;;;5104010;22;20060;-72
2024/03/13 03:25:02;;;;;;;2.30;2.20;;;;;;;;;;5094911;28;20024;-72
2024/03/13 03:27:28;;;;;;;2.10;2.00;;;;;;;;;;5095487;28;20363;-72
2024/03/13 03:29:53;;;;;;;3.10;2.80;;;;;;;;;;5076761;28;20028;-72
2024/03/13 03:32:19;;;;;;;2.35;2.15;;;;;;;;;;5094772;28;20502;-72
2024/03/13 03:34:44;;;;;;;1.90;1.80;;;;;;;;;;5093509;28;20027;-71
2024/03/13 03:37:10;;;;;;;2.65;2.45;;;;;;;;;;5094982;28;20425;-71
2024/03/13 03:39:38;;;;;;;2.30;2.10;;;;;;;;;;5095243;28;20030;-76
2024/03/13 03:42:03;;;;;;;2.22;2.13;;;;;;;;;;5094533;28;20067;-76
2024/03/13 03:44:32;;;;;;;2.45;2.30;;;;;;;;;;5094896;28;20070;-76
2024/03/13 03:46:58;;;;;;;2.20;2.10;;;;;;;;;;5076198;28;20055;-75
2024/03/13 03:49:24;;;;;;;2.47;2.30;;;;;;;;;;5094165;28;20456;-75
2024/03/13 03:51:50;;;;;;;2.35;2.22;;;;;;;;;;5094185;28;20031;-74
2024/03/13 03:54:15;;;;;;;2.55;2.45;;;;;;;;;;5094364;28;20499;-77
2024/03/13 03:56:41;;;;;;;3.60;3.30;;;;;;;;;;5094800;28;20077;-78
2024/03/13 03:59:07;;;;;;;2.75;2.55;;;;;;;;;;5094330;28;20051;-75
2024/03/13 04:01:33;;;;;;;2.38;2.28;;;;;;;;;;5094516;28;20039;-76
2024/03/13 04:03:59;;;;;;;4.93;3.40;;;;;;;;;;5076740;28;20016;-76
2024/03/13 04:06:25;;;;;;;3.97;2.88;;;;;;;;;;5094150;28;20031;-77
2024/03/13 04:08:51;;;;;;;2.33;2.22;;;;;;;;;;5093971;28;20107;-77
2024/03/13 04:11:17;;;;;;;7.18;3.85;;;;;;;;;;5094604;28;20020;-76
2024/03/13 04:13:42;;;;;;;3.47;3.17;;;;;;;;;;5094279;28;20387;-76
2024/03/13 04:16:10;;;;;;;2.90;2.70;;;;;;;;;;5076370;28;20061;-76
2024/03/13 04:18:36;;;;;;;3.08;2.75;;;;;;;;;;5093655;28;20044;-76
2024/03/13 04:21:01;;;;;;;2.85;2.65;;;;;;;;;;5074073;28;20032;-76
2024/03/13 04:23:29;;;;;;;3.05;2.83;;;;;;;;;;5075227;28;20353;-66
2024/03/13 04:25:55;;;;;;;2.58;2.47;;;;;;;;;;5092952;28;20101;-66
2024/03/13 04:28:20;;;;;;;2.55;2.40;;;;;;;;;;5093723;28;20499;-67
2024/03/13 04:30:46;;;;;;;2.63;2.53;;;;;;;;;;5075254;28;20043;-70
2024/03/13 04:33:12;;;;;;;2.70;2.60;;;;;;;;;;5075785;28;20487;-71
2024/03/13 04:35:39;;;;;;;2.65;2.55;;;;;;;;;;5075551;28;20471;-71
2024/03/13 04:38:04;;;;;;;2.88;2.67;;;;;;;;;;5074597;28;20502;-70
2024/03/13 04:40:30;;;;;;;2.97;2.65;;;;;;;;;;5093991;28;20032;-71
2024/03/13 04:42:57;;;;;;;3.08;2.88;;;;;;;;;;5075609;28;20540;-71
2024/03/13 04:45:22;;;;;;;2.70;2.60;;;;;;;;;;5076047;28;20055;-71
2024/03/13 04:47:49;;;;;;;3.38;3.17;;;;;;;;;;5094160;28;20032;-70
2024/03/13 04:50:15;;;;;;;2.80;2.70;;;;;;;;;;5093277;28;20047;-70
2024/03/13 04:52:40;;;;;;;2.85;2.65;;;;;;;;;;5093797;28;20028;-70
2024/03/13 04:55:06;;;;;;;3.22;3.00;;;;;;;;;;5075474;28;20533;-71
2024/03/13 04:57:32;;;;;;;3.45;3.25;;;;;;;;;;5093718;28;20036;-70
2024/03/13 04:59:58;;;;;;;3.63;3.33;;;;;;;;;;5093441;28;20032;-70
2024/03/13 05:02:24;;;;;;;3.38;3.17;;;;;;;;;;5093532;28;20020;-70
2024/03/13 05:04:49;;;;;;;3.55;3.25;;;;;;;;;;5094123;28;20027;-72
2024/03/13 05:07:15;;;;;;;3.75;3.42;;;;;;;;;;5075305;28;20101;-72
2024/03/13 05:09:41;;;;;;;3.40;3.20;;;;;;;;;;5093466;28;20032;-70
2024/03/13 05:12:06;;;;;;;3.88;3.58;;;;;;;;;;5094072;28;20166;-73
2024/03/13 05:14:32;;;;;;;3.65;3.30;;;;;;;;;;5093396;28;20153;-73
2024/03/13 05:16:58;;;;;;;3.33;3.10;;;;;;;;;;5075806;28;20020;-72
2024/03/13 05:19:24;;;;;;;3.75;3.47;;;;;;;;;;5093412;28;20040;-72
2024/03/13 05:21:49;;;;;;;3.58;3.28;;;;;;;;;;5075171;28;20089;-71
2024/03/13 05:24:15;;;;;;;3.40;3.20;;;;;;;;;;5093254;28;20036;-78
2024/03/13 05:26:41;;;;;;;3.97;3.67;;;;;;;;;;5075135;28;20545;-67
2024/03/13 05:29:08;;;;;;;3.78;3.47;;;;;;;;;;5075729;28;20106;-68
2024/03/13 05:31:34;;;;;;;3.85;3.55;;;;;;;;;;5093982;28;20044;-66
2024/03/13 05:34:00;;;;;;;3.28;3.08;;;;;;;;;;5078749;28;20103;-65
2024/03/13 05:36:25;;;;;;;3.30;3.10;;;;;;;;;;5097478;28;20032;-66
2024/03/13 05:38:51;;;;;;;3.50;3.30;;;;;;;;;;5078738;28;20383;-64
2024/03/13 05:41:16;;;;;;;3.50;3.30;;;;;;;;;;5097482;28;20040;-64
2024/03/13 05:43:42;;;;;;;3.40;3.20;;;;;;;;;;5097408;28;20020;-64
2024/03/13 05:46:07;;;;;;;3.83;3.58;;;;;;;;;;5097051;28;20032;-64
2024/03/13 05:48:32;;;;;;;4.13;3.88;;;;;;;;;;5078608;28;20028;-64
2024/03/13 05:50:59;;;;;;;4.18;3.78;;;;;;;;;;5097230;28;20134;-70
2024/03/13 05:53:25;;;;;;;4.75;4.45;;;;;;;;;;5097003;28;20035;-70
2024/03/13 05:55:50;;;;;;;4.88;4.57;;;;;;;;;;5078676;28;20036;-70
2024/03/13 05:58:15;;;;;;;9.27;6.30;;;;;;;;;;5096898;28;20056;-71
2024/03/13 06:00:41;;;;;;;4.97;4.50;;;;;;;;;;5096438;28;20476;-71
2024/03/13 06:03:06;;;;;;;5.63;5.20;;;;;;;;;;5096587;28;20355;-71
2024/03/13 06:05:32;;;;;;;4.30;4.00;;;;;;;;;;5096782;28;20024;-71
2024/03/13 06:07:58;;;;;;;4.13;3.83;;;;;;;;;;5096954;28;20413;-70
2024/03/13 06:10:24;;;;;;;3.63;3.42;;;;;;;;;;5096928;28;20089;-71
2024/03/13 06:12:51;;;;;;;3.50;3.30;;;;;;;;;;5096275;28;20104;-70
2024/03/13 06:15:17;;;;;;;3.50;3.30;;;;;;;;;;5096568;28;20494;-70
2024/03/13 06:17:45;;;;;;;6.53;4.75;;;;;;;;;;5096233;28;20027;-70
2024/03/13 06:20:13;;;;;;;3.97;3.67;;;;;;;;;;5096554;28;20055;-70
2024/03/13 06:22:40;;;;;;;4.43;4.13;;;;;;;;;;5096452;28;20493;-70
2024/03/13 06:25:06;;;;;;;3.88;3.58;;;;;;;;;;5096436;28;20133;-70
2024/03/13 06:27:35;;;;;;;4.22;3.83;;;;;;;;;;5096393;28;20475;-70
2024/03/13 06:30:01;;;;;;;5.15;4.20;;;;;;;;;;5096065;28;20085;-70
2024/03/13 06:32:30;;;;;;;5.22;4.40;;;;;;;;;;5096252;28;20530;-65
2024/03/13 06:34:55;;;;;;;4.45;4.07;;;;;;;;;;5095973;28;20099;-63
2024/03/13 06:37:24;;;;;;;5.03;4.50;;;;;;;;;;5095930;28;20036;-64
2024/03/13 06:39:50;;;;;;;4.97;4.57;;;;;;;;;;5077560;28;20024;-64
2024/03/13 06:42:16;;;;;;;18.50;14.73;;;;;;;;;;5095035;28;20044;-63
2024/03/13 06:44:43;;;;;;;7.82;7.00;;;;;;;;;;5094260;28;20032;-64
2024/03/13 06:47:11;;;;;;;4.03;3.72;;;;;;;;;;5094868;28;20078;-64
2024/03/13 06:49:37;;;;;;;4.72;4.32;;;;;;;;;;5094895;28;20115;-64
2024/03/13 06:52:02;;;;;;;4.25;3.95;;;;;;;;;;5095142;28;20304;-63
2024/03/13 06:54:28;;;;;;;4.60;4.30;;;;;;;;;;5077124;28;20544;-64
2024/03/13 06:56:53;;;;;;;4.63;4.13;;;;;;;;;;5095781;28;20032;-64
2024/03/13 06:59:19;;;;;;;4.43;4.13;;;;;;;;;;5095465;28;20044;-64
2024/03/13 07:01:47;;;;;;;4.28;3.97;;;;;;;;;;5095924;28;20040;-64
2024/03/13 07:04:13;;;;;;;5.38;4.80;;;;;;;;;;5095677;28;20028;-64
2024/03/13 07:06:38;;;;;;;4.72;4.38;;;;;;;;;;5095296;28;20100;-70
2024/03/13 07:09:03;;;;;;;4.75;4.35;;;;;;;;;;5095831;28;20036;-70
2024/03/13 07:11:29;;;;;;;4.50;4.20;;;;;;;;;;5095519;28;20039;-70
2024/03/13 07:13:54;;;;;;;4.70;4.30;;;;;;;;;;5095176;28;20026;-70
2024/03/13 07:19:11;;;;;;;6.30;5.78;;;;;;;;;;5114687;22;20489;-61
2024/03/13 07:21:38;;;;;;;8.10;7.30;;;;;;;;;;5093622;28;20047;-70
2024/03/13 07:24:04;;;;;;;7.35;6.57;;;;;;;;;;5094112;28;20028;-70
2024/03/13 07:26:31;;;;;;;6.47;5.75;;;;;;;;;;5095461;28;20063;-70
2024/03/13 07:28:57;;;;;;;6.00;5.50;;;;;;;;;;5077358;28;20086;-70
2024/03/13 07:31:23;;;;;;;6.22;5.63;;;;;;;;;;5095384;28;20115;-70
2024/03/13 07:33:50;;;;;;;8.85;7.05;;;;;;;;;;5094789;28;20056;-70
2024/03/13 07:36:16;;;;;;;15.80;11.07;;;;;;;;;;5093470;28;20079;-70
2024/03/13 07:38:41;;;;;;;16.77;11.50;;;;;;;;;;5076597;28;20032;-70
2024/03/13 07:41:10;;;;;;;11.63;9.25;;;;;;;;;;5094597;28;20027;-70
2024/03/13 07:43:36;;;;;;;7.87;6.53;;;;;;;;;;5094910;28;20060;-70
2024/03/13 07:46:01;;;;;;;9.10;8.20;;;;;;;;;;5095111;28;20024;-70
2024/03/13 07:48:26;;;;;;;12.38;10.88;;;;;;;;;;5094740;28;20028;-70
2024/03/13 07:50:52;;;;;;;16.70;13.18;;;;;;;;;;5094464;28;20048;-70
2024/03/13 07:53:20;;;;;;;19.75;12.02;;;;;;;;;;5094424;28;20068;-64
2024/03/13 07:55:47;;;;;;;17.25;11.35;;;;;;;;;;5094052;28;20123;-64
2024/03/13 07:58:12;;;;;;;12.85;10.68;;;;;;;;;;5094069;28;20024;-64
2024/03/13 08:00:39;;;;;;;14.88;11.13;;;;;;;;;;5094253;28;20071;-64
2024/03/13 08:03:04;;;;;;;19.65;12.25;;;;;;;;;;5094255;28;20051;-64
2024/03/13 08:05:30;;;;;;;15.88;10.80;;;;;;;;;;5094209;28;20034;-64
2024/03/13 08:07:56;;;;;;;23.25;12.18;;;;;;;;;;5076138;28;20030;-64
2024/03/13 08:10:25;;;;;;;18.13;12.18;;;;;;;;;;5094158;28;20032;-64
2024/03/13 08:13:00;;;;;;;24.40;13.00;;;;;;;;;;5094137;28;20034;-64
2024/03/13 08:15:28;;;;;;;26.15;14.13;;;;;;;;;;5076076;28;20059;-64
2024/03/13 08:17:54;;;;;;;25.38;14.95;;;;;;;;;;5094050;28;20028;-64
2024/03/13 08:20:19;;;;;;;22.55;13.40;;;;;;;;;;5093829;28;20040;-64
2024/03/13 08:22:44;;;;;;;18.63;11.85;;;;;;;;;;5094257;28;20026;-64
2024/03/13 08:25:16;;;;;;;16.90;10.95;;;;;;;;;;5093926;28;20020;-64
2024/03/13 08:27:42;;;;;;;17.10;11.40;;;;;;;;;;5093899;28;20103;-64
2024/03/13 08:30:08;;;;;;;18.50;11.02;;;;;;;;;;5075706;28;20502;-64
2024/03/13 08:32:33;;;;;;;44.13;19.77;;;;;;;;;;5094102;28;20078;-64
2024/03/13 08:34:58;;;;;;;84.30;40.58;;;;;;;;;;5093760;28;20023;-63
2024/03/13 08:37:26;;;;;;;48.97;27.00;;;;;;;;;;5093764;28;20020;-64
2024/03/13 08:39:52;;;;;;;84.85;45.17;;;;;;;;;;5093772;28;20113;-64
2024/03/13 08:42:21;;;;;;;48.13;25.48;;;;;;;;;;5093914;28;20463;-64
2024/03/13 08:44:47;;;;;;;80.88;37.78;;;;;;;;;;5093942;28;20032;-64
2024/03/13 08:47:12;;;;;;;43.05;22.60;;;;;;;;;;5075670;28;20078;-64
2024/03/13 08:49:38;;;;;;;21.30;14.27;;;;;;;;;;5093638;28;20028;-64
2024/03/13 08:52:03;;;;;;;18.02;11.13;;;;;;;;;;5093911;28;20043;-64
2024/03/13 08:54:28;;;;;;;19.50;13.05;;;;;;;;;;5093852;28;20040;-64
2024/03/13 08:56:54;;;;;;;20.25;13.32;;;;;;;;;;5092965;28;20115;-70
2024/03/13 08:59:19;;;;;;;38.97;22.88;;;;;;;;;;5075498;28;20036;-70
2024/03/13 09:01:44;;;;;;;33.10;21.77;;;;;;;;;;5093460;28;20459;-70
2024/03/13 09:04:10;;;;;;;27.55;18.10;;;;;;;;;;5093753;28;20075;-70
2024/03/13 09:06:36;;;;;;;25.10;17.70;;;;;;;;;;5093757;28;20074;-70
2024/03/13 09:09:03;;;;;;;36.75;24.92;;;;;;;;;;5096773;28;20123;-70
2024/03/13 09:11:29;;;;;;;31.90;20.48;;;;;;;;;;5097562;28;20028;-70
2024/03/13 09:14:01;;;;;;;22.88;15.20;;;;;;;;;;5097788;28;20058;-70
2024/03/13 09:16:31;;;;;;;23.83;15.55;;;;;;;;;;5079289;28;20085;-70
2024/03/13 09:18:57;;;;;;;24.27;16.95;;;;;;;;;;5079977;28;20433;-70
2024/03/13 09:21:22;;;;;;;24.60;14.85;;;;;;;;;;5079129;28;20052;-70
2024/03/13 09:23:49;;;;;;;29.45;16.30;;;;;;;;;;5097312;28;20035;-70
2024/03/13 09:26:15;;;;;;;25.08;15.35;;;;;;;;;;5097250;28;20073;-64
2024/03/13 09:28:40;;;;;;;20.38;14.50;;;;;;;;;;5097224;28;20442;-64
2024/03/13 09:31:07;;;;;;;23.98;15.93;;;;;;;;;;5078917;28;20032;-64
2024/03/13 09:33:33;;;;;;;22.83;14.98;;;;;;;;;;5078980;28;20115;-64
2024/03/13 09:35:59;;;;;;;33.05;22.08;;;;;;;;;;5096227;28;20150;-64
2024/03/13 09:38:25;;;;;;;31.60;21.30;;;;;;;;;;5097041;28;20023;-64
2024/03/13 09:40:50;;;;;;;25.38;16.83;;;;;;;;;;5096901;28;20032;-64
2024/03/13 09:43:16;;;;;;;22.63;14.93;;;;;;;;;;5097656;28;20016;-64
2024/03/13 09:45:44;;;;;;;21.35;13.35;;;;;;;;;;5079920;28;20361;-64
2024/03/13 09:48:11;;;;;;;23.35;14.50;;;;;;;;;;5097425;28;20111;-64
2024/03/13 09:50:37;;;;;;;23.73;15.15;;;;;;;;;;5097045;28;20036;-64
2024/03/13 09:53:02;;;;;;;22.88;15.23;;;;;;;;;;5097041;28;20034;-64
2024/03/13 09:55:29;;;;;;;24.35;14.07;;;;;;;;;;5096730;28;20032;-64
2024/03/13 09:57:55;;;;;;;23.45;14.82;;;;;;;;;;5078921;28;20119;-64
2024/03/13 10:00:20;;;;;;;24.65;15.88;;;;;;;;;;5096585;28;20032;-64
2024/03/13 10:02:51;;;;;;;26.08;16.75;;;;;;;;;;5096597;28;20388;-64
2024/03/13 10:05:20;;;;;;;24.08;15.00;;;;;;;;;;5095257;28;20056;-64
2024/03/13 10:07:49;;;;;;;26.42;16.80;;;;;;;;;;5096804;28;20451;-64
2024/03/13 10:10:24;;;;;;;21.75;14.85;;;;;;;;;;5096468;28;20024;-64
2024/03/13 10:12:50;;;;;;;28.13;17.17;;;;;;;;;;5096672;28;20043;-64
2024/03/13 10:15:17;;;;;;;20.90;14.20;;;;;;;;;;5078203;28;20016;-64
2024/03/13 10:17:47;;;;;;;25.65;16.45;;;;;;;;;;5096601;28;20035;-64
2024/03/13 10:20:16;;;;;;;27.50;16.52;;;;;;;;;;5094949;28;20055;-64
2024/03/13 10:22:44;;;;;;;26.52;16.75;;;;;;;;;;5096540;28;20024;-64
2024/03/13 10:25:13;;;;;;;25.52;14.88;;;;;;;;;;5096212;28;20024;-64
2024/03/13 10:27:39;;;;;;;26.88;16.08;;;;;;;;;;5096101;28;20055;-64
2024/03/13 10:30:05;;;;;;;27.73;15.73;;;;;;;;;;5096324;28;20450;-64
2024/03/13 10:32:30;;;;;;;28.48;17.17;;;;;;;;;;5078496;28;20035;-64
2024/03/13 10:34:56;;;;;;;28.73;17.30;;;;;;;;;;5096232;28;20426;-64
2024/03/13 10:37:22;;;;;;;25.63;16.13;;;;;;;;;;5096516;28;20115;-64
2024/03/13 10:39:47;;;;;;;24.85;15.90;;;;;;;;;;5096151;28;20081;-63
2024/03/13 10:42:12;;;;;;;26.05;16.67;;;;;;;;;;5095745;28;20084;-64
2024/03/13 10:44:38;;;;;;;27.65;17.52;;;;;;;;;;5077731;28;20012;-64
2024/03/13 10:47:03;;;;;;;27.33;17.02;;;;;;;;;;5077716;28;20028;-64
2024/03/13 10:49:29;;;;;;;26.50;15.10;;;;;;;;;;5074142;22;20389;-70
2024/03/13 10:51:55;;;;;;;25.65;15.95;;;;;;;;;;5057518;28;20519;-70
2024/03/13 10:54:21;;;;;;;29.27;17.60;;;;;;;;;;5075673;28;20028;-70
2024/03/13 10:56:49;;;;;;;26.67;16.23;;;;;;;;;;5075319;28;20111;-70
2024/03/13 10:59:14;;;;;;;24.02;15.73;;;;;;;;;;5075559;28;20044;-70
2024/03/13 11:01:45;;;;;;;25.20;15.68;;;;;;;;;;5057270;28;20044;-70
2024/03/13 11:04:10;;;;;;;;;;;;;;;;;;5075850;28;20361;-70
2024/03/13 11:06:36;;;;;;;22.13;14.03;;;;;;;;;;5075153;28;19958;-70
2024/03/13 11:09:03;;;;;;;22.27;14.65;;;;;;;;;;5075312;28;20271;-70
2024/03/13 11:11:30;;;;;;;22.42;14.32;;;;;;;;;;5075326;28;20025;-70
2024/03/13 11:13:58;;;;;;;22.65;15.90;;;;;;;;;;5075284;28;20036;-70
2024/03/13 11:16:23;;;;;;;22.20;15.52;;;;;;;;;;5074911;28;20048;-70
2024/03/13 11:18:54;;;;;;;18.45;12.55;;;;;;;;;;5074860;28;20028;-70
2024/03/13 11:21:49;;;;;;;21.35;13.15;;;;;;;;;;5074985;28;20079;-70
2024/03/13 11:24:23;;;;;;;18.48;13.85;;;;;;;;;;5040126;28;20039;-70
2024/03/13 11:26:50;;;;;;;21.35;14.35;;;;;;;;;;5056825;28;20089;-70
2024/03/13 11:29:16;;;;;;;20.38;13.90;;;;;;;;;;5057392;28;20032;-70
2024/03/13 11:31:41;;;;;;;23.30;14.45;;;;;;;;;;5039997;28;20033;-70
2024/03/13 11:34:09;;;;;;;19.10;12.25;;;;;;;;;;5074874;28;20384;-70
2024/03/13 11:36:35;;;;;;;18.25;12.40;;;;;;;;;;5074348;28;20109;-70
2024/03/13 11:39:02;;;;;;;20.83;14.02;;;;;;;;;;5056619;28;20123;-70
2024/03/13 11:41:27;;;;;;;17.00;11.68;;;;;;;;;;5074345;28;20027;-70
2024/03/13 11:43:53;;;;;;;11.60;8.48;;;;;;;;;;5074335;28;20024;-70
2024/03/13 11:46:22;;;;;;;13.52;10.40;;;;;;;;;;5074859;28;20044;-70
2024/03/13 11:48:49;;;;;;;15.55;10.75;;;;;;;;;;5074189;28;20041;-70
2024/03/13 11:51:15;;;;;;;16.23;9.82;;;;;;;;;;5074504;28;20028;-70
2024/03/13 11:53:40;;;;;;;19.08;13.10;;;;;;;;;;5074483;28;20479;-70
2024/03/13 11:56:06;;;;;;;16.23;11.77;;;;;;;;;;5056369;28;20544;-70
2024/03/13 11:58:33;;;;;;;19.63;12.27;;;;;;;;;;5113591;22;20518;-70
2024/03/13 12:00:59;;;;;;;16.23;11.82;;;;;;;;;;5094297;28;20028;-70
2024/03/13 12:03:33;;;;;;;14.23;9.65;;;;;;;;;;5094622;28;20069;-70
2024/03/13 12:06:00;;;;;;;19.35;13.40;;;;;;;;;;5076262;28;20020;-70
2024/03/13 12:08:25;;;;;;;14.18;10.93;;;;;;;;;;5094512;28;20353;-70
2024/03/13 12:10:51;;;;;;;18.30;13.65;;;;;;;;;;5094245;28;20077;-70
2024/03/13 12:13:17;;;;;;;14.88;11.77;;;;;;;;;;5094407;28;20062;-70
2024/03/13 12:15:44;;;;;;;17.05;12.57;;;;;;;;;;5093464;28;20360;-70
2024/03/13 12:18:12;;;;;;;12.90;10.43;;;;;;;;;;5094073;28;20032;-70
2024/03/13 12:20:41;;;;;;;24.83;16.70;;;;;;;;;;5094591;28;20111;-70
2024/03/13 12:23:09;;;;;;;19.83;13.93;;;;;;;;;;5096643;28;20061;-72
2024/03/13 12:25:34;;;;;;;21.25;14.27;;;;;;;;;;5096051;28;20024;-72
2024/03/13 12:28:00;;;;;;;27.25;17.25;;;;;;;;;;5096255;28;20375;-70
2024/03/13 12:30:29;;;;;;;43.28;25.17;;;;;;;;;;5094174;28;20032;-70
2024/03/13 12:33:01;;;;;;;27.50;16.73;;;;;;;;;;5093919;28;20089;-70
2024/03/13 12:35:26;;;;;;;28.48;16.92;;;;;;;;;;5092789;28;20379;-70
2024/03/13 12:37:55;;;;;;;20.17;14.63;;;;;;;;;;5094093;28;20054;-70
2024/03/13 12:40:20;;;;;;;22.67;15.73;;;;;;;;;;5094006;28;20111;-70
2024/03/13 12:42:47;;;;;;;17.77;10.90;;;;;;;;;;5093407;28;20107;-70
2024/03/13 12:45:14;;;;;;;22.20;14.25;;;;;;;;;;5093709;28;20066;-70
2024/03/13 12:47:43;;;;;;;25.08;15.85;;;;;;;;;;5092788;28;20028;-70
2024/03/13 12:50:11;;;;;;;22.48;14.38;;;;;;;;;;5093925;28;20028;-70
2024/03/13 12:52:38;;;;;;;21.63;14.48;;;;;;;;;;5075901;28;20506;-70
2024/03/13 12:55:04;;;;;;;27.67;16.60;;;;;;;;;;5092436;28;20076;-70
2024/03/13 12:57:33;;;;;;;20.58;14.45;;;;;;;;;;5093707;28;20032;-70
2024/03/13 13:00:04;;;;;;;16.55;11.70;;;;;;;;;;5092700;28;20040;-70
2024/03/13 13:02:30;;;;;;;26.52;15.25;;;;;;;;;;5075402;28;20035;-70
2024/03/13 13:04:55;;;;;;;24.25;14.07;;;;;;;;;;5093537;28;20365;-70
2024/03/13 13:07:21;;;;;;;24.30;15.05;;;;;;;;;;5093770;28;20077;-64
2024/03/13 13:09:49;;;;;;;19.10;13.00;;;;;;;;;;5093489;28;20032;-64
2024/03/13 13:12:16;;;;;;;23.27;14.23;;;;;;;;;;5093749;28;20383;-64
2024/03/13 13:14:43;;;;;;;19.58;13.38;;;;;;;;;;5092595;28;20040;-64
2024/03/13 13:17:08;;;;;;;25.02;16.45;;;;;;;;;;5075335;28;20480;-64
2024/03/13 13:19:34;;;;;;;19.70;12.95;;;;;;;;;;5092173;28;20047;-64
2024/03/13 13:21:59;;;;;;;19.33;14.18;;;;;;;;;;5093293;28;20024;-64
2024/03/13 13:24:25;;;;;;;18.95;13.80;;;;;;;;;;5075371;28;20035;-64
2024/03/13 13:26:51;;;;;;;23.45;19.00;;;;;;;;;;5092030;28;20387;-64
2024/03/13 13:29:17;;;;;;;16.42;13.27;;;;;;;;;;5093244;28;20020;-64
2024/03/13 13:31:43;;;;;;;17.48;14.20;;;;;;;;;;5092105;28;20511;-64
2024/03/13 13:34:09;;;;;;;22.90;19.27;;;;;;;;;;5091906;28;20035;-64
2024/03/13 13:36:35;;;;;;;21.20;16.02;;;;;;;;;;5075837;28;20020;-64
2024/03/13 13:39:00;;;;;;;17.85;13.93;;;;;;;;;;5093783;28;20036;-64
2024/03/13 13:41:28;;;;;;;15.85;13.10;;;;;;;;;;5093380;28;20036;-64
2024/03/13 13:43:53;;;;;;;14.50;11.52;;;;;;;;;;5075371;28;20028;-64
2024/03/13 13:46:18;;;;;;;14.50;11.48;;;;;;;;;;5075060;28;20028;-64
2024/03/13 13:48:44;;;;;;;14.70;11.57;;;;;;;;;;5075031;28;20016;-64
2024/03/13 13:51:10;;;;;;;9.75;8.65;;;;;;;;;;5093423;28;20031;-64
2024/03/13 13:53:35;;;;;;;11.10;9.23;;;;;;;;;;5094132;28;20024;-64
2024/03/13 13:56:01;;;;;;;12.88;10.93;;;;;;;;;;5078612;28;20536;-64
2024/03/13 13:58:26;;;;;;;18.77;15.10;;;;;;;;;;5092395;28;20059;-64
2024/03/13 14:00:52;;;;;;;15.88;11.70;;;;;;;;;;5076575;28;20040;-64
2024/03/13 14:03:23;;;;;;;11.88;10.38;;;;;;;;;;5096012;22;20127;-65
2024/03/13 14:05:51;;;;;;;15.43;12.80;;;;;;;;;;5095059;28;20111;-66
2024/03/13 14:08:19;;;;;;;28.60;23.90;;;;;;;;;;5095030;28;20472;-66
2024/03/13 14:10:45;;;;;;;13.20;11.70;;;;;;;;;;5096753;28;20483;-65
2024/03/13 14:13:11;;;;;;;16.23;13.20;;;;;;;;;;5096432;28;20043;-72
2024/03/13 14:15:51;;;;;;;18.88;14.82;;;;;;;;;;5116764;22;20047;-72
2024/03/13 14:18:16;;;;;;;17.23;14.18;;;;;;;;;;5054724;28;20064;-72
2024/03/13 14:20:42;;;;;;;14.05;11.25;;;;;;;;;;5056229;28;20384;-73
2024/03/13 14:23:07;;;;;;;17.27;14.15;;;;;;;;;;5056253;28;20036;-72
2024/03/13 14:25:32;;;;;;;18.58;15.05;;;;;;;;;;5056665;28;20428;-72
2024/03/13 14:27:58;;;;;;;32.08;26.50;;;;;;;;;;5055858;28;20469;-72
2024/03/13 14:30:23;;;;;;;48.28;29.70;;;;;;;;;;5055719;28;20039;-70
2024/03/13 14:32:49;;;;;;;37.33;22.38;;;;;;;;;;5055844;28;20079;-72
2024/03/13 14:35:15;;;;;;;26.52;16.65;;;;;;;;;;5056212;28;20380;-72
2024/03/13 14:37:40;;;;;;;52.47;34.38;;;;;;;;;;5056073;28;20039;-72
2024/03/13 14:40:11;;;;;;;25.60;17.13;;;;;;;;;;5054564;28;20033;-72
2024/03/13 14:42:37;;;;;;;38.10;22.98;;;;;;;;;;5054270;28;20071;-73
2024/03/13 14:45:05;;;;;;;29.60;18.88;;;;;;;;;;5055632;28;20037;-73
2024/03/13 14:47:30;;;;;;;29.42;19.02;;;;;;;;;;5056015;28;20483;-72